Time;durP1;ratioP1;P1;durP2;ratioP2;P2;SDS_P1;SDS_P2;PMS_P1;PMS_P2;Temp;Humidity;BMP_temperature;BMP_pressure;BME280_temperature;BME280_humidity;BME280_pressure;Samples;Min_cycle;Max_cycle;Signal;HPM_P1;HPM_P2
2021/07/05 00:00:27;;;;;;;5.10;3.08;;;17.30;93.40;;;17.33;82.67;99890.28;4989065;28;20129;-88
2021/07/05 00:02:56;;;;;;;8.10;3.20;;;17.40;93.40;;;17.32;82.61;99891.34;4988897;28;20054;-88
2021/07/05 00:05:24;;;;;;;4.00;2.80;;;17.30;93.50;;;17.33;82.60;99887.53;4989039;28;20557;-88
2021/07/05 00:07:54;;;;;;;6.18;2.75;;;17.40;93.60;;;17.31;82.92;99885.03;4987071;28;20058;-88
2021/07/05 00:10:27;;;;;;;5.73;2.80;;;17.30;93.70;;;17.30;82.83;99888.00;4988999;28;20065;-88
2021/07/05 00:12:57;;;;;;;4.22;2.35;;;17.30;93.70;;;17.29;83.00;99883.59;4988570;28;20385;-88
2021/07/05 00:15:27;;;;;;;4.78;2.30;;;17.30;93.90;;;17.28;82.95;99888.25;4989089;28;20124;-88
2021/07/05 00:18:00;;;;;;;8.00;2.50;;;17.40;93.80;;;17.28;83.10;99892.94;4988959;28;20073;-88
2021/07/05 00:20:29;;;;;;;3.40;2.30;;;17.30;93.80;;;17.28;83.03;99888.25;4989027;28;20058;-88
2021/07/05 00:22:57;;;;;;;5.57;2.40;;;17.30;93.80;;;17.27;82.74;99883.84;4988933;28;20050;-88
2021/07/05 00:25:24;;;;;;;4.47;2.60;;;17.30;93.70;;;17.26;82.74;99884.91;4988681;28;20151;-88
2021/07/05 00:27:52;;;;;;;5.93;2.00;;;17.30;93.60;;;17.27;82.71;99891.25;4987875;28;20788;-88
2021/07/05 00:30:23;;;;;;;5.20;2.20;;;17.30;93.70;;;17.20;82.75;99892.22;4988632;28;20057;-88
2021/07/05 00:32:55;;;;;;;6.90;2.22;;;17.30;93.70;;;17.23;82.78;99895.56;4988732;28;20554;-88
2021/07/05 00:35:27;;;;;;;5.38;2.30;;;17.20;93.70;;;17.24;82.83;99891.75;4987143;28;20465;-88
2021/07/05 00:37:56;;;;;;;6.15;1.83;;;17.20;93.80;;;17.22;82.84;99882.91;5007932;28;20042;-88
2021/07/05 00:40:24;;;;;;;3.80;2.03;;;17.20;93.80;;;17.18;82.61;99883.38;5008209;28;20158;-87
2021/07/05 00:42:53;;;;;;;2.90;1.60;;;17.20;93.70;;;17.19;82.89;99876.81;5008174;28;20049;-88
2021/07/05 00:45:21;;;;;;;4.68;2.10;;;17.20;93.90;;;17.18;82.96;99872.38;5008484;28;20056;-88
2021/07/05 00:47:49;;;;;;;3.25;1.63;;;17.20;94.10;;;17.17;83.14;99865.22;5007930;28;20564;-87
2021/07/05 00:50:20;;;;;;;5.20;2.00;;;17.20;94.00;;;17.16;82.99;99870.97;5023197;28;20484;-87
2021/07/05 00:52:51;;;;;;;3.50;1.83;;;17.20;93.80;;;17.14;82.95;99871.22;5023126;28;20046;-87
2021/07/05 00:55:19;;;;;;;4.22;1.73;;;17.20;93.90;;;17.12;83.05;99865.13;5008308;28;20116;-88
2021/07/05 00:57:49;;;;;;;4.22;1.83;;;17.20;93.80;;;17.12;82.86;99867.03;5001954;28;20058;-88
2021/07/05 01:00:24;;;;;;;4.05;1.60;;;17.20;93.70;;;17.11;82.62;99855.19;4988523;28;20109;-88
2021/07/05 01:02:53;;;;;;;3.53;1.63;;;17.10;93.50;;;17.07;82.36;99839.44;4988483;28;20094;-88
2021/07/05 01:05:23;;;;;;;6.05;1.90;;;17.10;93.50;;;17.04;82.58;99842.66;4988194;28;20145;-87
2021/07/05 01:07:51;;;;;;;3.17;1.50;;;17.10;93.40;;;17.07;82.39;99842.19;4988337;28;20821;-88
2021/07/05 01:10:21;;;;;;;4.00;1.90;;;17.10;93.50;;;17.04;82.13;99839.91;4988295;28;20117;-88
2021/07/05 01:12:49;;;;;;;4.97;1.70;;;17.00;93.30;;;17.02;82.43;99840.19;4988557;28;20046;-88
2021/07/05 01:15:19;;;;;;;4.65;1.75;;;17.00;93.50;;;16.99;82.43;99840.66;4988383;28;20120;-88
2021/07/05 01:17:47;;;;;;;4.72;1.63;;;17.00;93.50;;;16.99;82.40;99840.66;4988132;28;20066;-87
2021/07/05 01:20:18;;;;;;;5.32;1.75;;;17.00;93.60;;;17.02;82.48;99837.44;4988689;28;20692;-88
2021/07/05 01:22:47;;;;;;;5.18;1.60;;;17.00;93.70;;;16.99;82.46;99838.72;4988421;28;20079;-88
2021/07/05 01:25:22;;;;;;;4.65;1.67;;;17.00;93.80;;;17.00;82.79;99836.81;4988601;28;20054;-88
2021/07/05 01:27:51;;;;;;;5.78;1.80;;;17.00;94.00;;;17.02;82.86;99842.94;4988166;28;20097;-88
2021/07/05 01:30:21;;;;;;;5.32;1.50;;;17.00;94.20;;;17.02;83.18;99834.69;4988482;28;20461;-88
2021/07/05 01:32:57;;;;;;;4.90;1.60;;;17.00;94.30;;;17.04;83.42;99827.03;4988116;28;20050;-88
2021/07/05 01:35:25;;;;;;;5.43;2.00;;;17.10;94.60;;;17.04;83.55;99816.03;5003474;28;20116;-88
2021/07/05 01:37:54;;;;;;;3.70;1.85;;;17.10;94.90;;;17.05;83.95;99822.34;4999330;28;20062;-88
2021/07/05 01:40:21;;;;;;;3.85;1.63;;;17.10;95.00;;;17.05;84.30;99825.94;4990215;28;20058;-88
2021/07/05 01:42:53;;;;;;;6.75;2.33;;;17.20;95.10;;;17.05;84.30;99820.44;4991802;28;20046;-87
2021/07/05 01:45:24;;;;;;;3.95;1.80;;;17.20;95.20;;;17.06;84.29;99819.38;4990055;28;20404;-87
2021/07/05 01:47:52;;;;;;;3.92;2.10;;;17.20;95.30;;;17.09;84.52;99821.59;4991449;28;20077;-88
2021/07/05 01:50:21;;;;;;;4.93;2.08;;;17.20;95.30;;;17.06;84.89;99819.38;4991419;28;20046;-87
2021/07/05 01:52:49;;;;;;;5.40;2.33;;;17.20;95.40;;;17.08;84.83;99808.94;4993995;28;20041;-88
2021/07/05 01:55:23;;;;;;;3.90;1.92;;;17.20;95.30;;;17.09;84.77;99807.03;5010969;28;20050;-88
2021/07/05 01:57:50;;;;;;;5.05;2.25;;;17.30;95.50;;;17.08;85.03;99806.19;5004371;28;20050;-88
2021/07/05 02:00:20;;;;;;;3.38;2.00;;;17.30;95.50;;;17.09;85.08;99813.34;4991749;28;20591;-88
2021/07/05 02:02:52;;;;;;;5.47;2.10;;;17.20;95.40;;;17.09;85.02;99816.09;4991376;28;20050;-88
2021/07/05 02:05:19;;;;;;;3.97;1.98;;;17.30;95.50;;;17.08;85.09;99808.94;4991203;28;20439;-88
2021/07/05 02:07:48;;;;;;;8.43;2.30;;;17.30;95.50;;;17.08;85.09;99808.13;4990861;28;20080;-88
2021/07/05 02:10:20;;;;;;;4.22;2.03;;;17.30;95.40;;;17.07;85.32;99798.19;4991272;28;20054;-88
2021/07/05 02:12:48;;;;;;;6.65;2.17;;;17.20;95.40;;;17.06;85.30;99802.88;4991321;28;20053;-88
2021/07/05 02:15:16;;;;;;;4.13;1.90;;;17.30;95.40;;;17.08;85.27;99799.88;4991180;28;20054;-88
2021/07/05 02:17:45;;;;;;;4.65;2.03;;;17.30;95.40;;;17.07;85.27;99803.69;4990581;28;20060;-88
2021/07/05 02:20:15;;;;;;;4.53;2.00;;;17.30;95.40;;;17.07;85.19;99799.03;4990834;28;20793;-88
2021/07/05 02:22:44;;;;;;;7.05;2.13;;;17.30;95.50;;;17.04;85.42;99794.03;4991298;28;20046;-87
2021/07/05 02:25:15;;;;;;;4.30;2.10;;;17.30;95.60;;;17.05;85.58;99801.19;4990908;28;20046;-88
2021/07/05 02:27:44;;;;;;;6.00;2.10;;;17.20;95.60;;;17.06;85.61;99782.75;4990956;28;20109;-88
2021/07/05 02:30:15;;;;;;;3.80;2.13;;;17.30;95.60;;;17.07;85.54;99778.94;4990987;28;20074;-88
2021/07/05 02:32:43;;;;;;;4.93;1.85;;;17.30;95.60;;;17.07;85.57;99774.28;4991040;28;20133;-88
2021/07/05 02:35:15;;;;;;;3.38;1.98;;;17.30;95.60;;;17.07;85.68;99771.53;4990662;28;20466;-88
2021/07/05 02:37:44;;;;;;;7.05;2.22;;;17.40;95.60;;;17.06;85.62;99769.88;5009831;28;20100;-87
2021/07/05 02:40:17;;;;;;;4.72;1.98;;;17.30;95.70;;;17.08;85.55;99772.38;5010326;28;20053;-88
2021/07/05 02:42:47;;;;;;;3.95;2.30;;;17.30;95.70;;;17.08;85.85;99770.47;5010425;28;20465;-88
2021/07/05 02:45:22;;;;;;;6.30;2.30;;;17.30;95.70;;;17.09;85.53;99766.63;5010455;28;20100;-88
2021/07/05 02:47:49;;;;;;;6.03;2.03;;;17.40;95.70;;;17.09;85.91;99772.13;5008494;28;20505;-88
2021/07/05 02:50:17;;;;;;;4.53;2.08;;;17.40;95.70;;;17.08;86.01;99769.63;5009506;28;20088;-88
2021/07/05 02:52:44;;;;;;;4.15;1.85;;;17.40;95.80;;;17.09;86.08;99785.88;5008399;28;20061;-88
2021/07/05 02:55:12;;;;;;;4.60;2.03;;;17.40;95.80;;;17.11;85.99;99778.19;5009947;28;20041;-88
2021/07/05 02:57:43;;;;;;;4.88;2.13;;;17.40;95.80;;;17.09;86.23;99780.38;5009629;28;20145;-88
2021/07/05 03:00:16;;;;;;;4.63;2.10;;;17.40;95.90;;;17.09;86.50;99780.38;5025125;28;20048;-88
2021/07/05 03:02:45;;;;;;;7.07;1.90;;;17.40;96.00;;;17.11;86.49;99778.19;5009792;28;20086;-88
2021/07/05 03:05:14;;;;;;;3.95;2.35;;;17.40;96.00;;;17.12;86.59;99773.56;5024856;28;20085;-88
2021/07/05 03:07:42;;;;;;;3.90;1.70;;;17.40;96.00;;;17.13;86.55;99780.72;5009804;28;20046;-88
2021/07/05 03:10:13;;;;;;;5.50;2.00;;;17.50;96.20;;;17.13;86.63;99780.72;5009769;28;20637;-88
2021/07/05 03:12:40;;;;;;;4.75;2.20;;;17.40;96.10;;;17.12;86.79;99779.06;5008543;28;20570;-88
2021/07/05 03:15:13;;;;;;;8.60;2.00;;;17.40;96.10;;;17.12;86.67;99784.56;5009434;28;20046;-88
2021/07/05 03:17:42;;;;;;;3.78;2.00;;;17.40;96.20;;;17.10;86.90;99782.03;5009680;28;20049;-87
2021/07/05 03:20:12;;;;;;;5.57;2.15;;;17.40;96.30;;;17.11;86.92;99769.94;5009469;28;20508;-88
2021/07/05 03:22:40;;;;;;;5.32;2.33;;;17.40;96.30;;;17.12;86.89;99779.88;5009589;28;20038;-87
2021/07/05 03:25:11;;;;;;;4.88;1.75;;;17.50;96.40;;;17.11;86.87;99783.69;5007992;28;20066;-88
2021/07/05 03:27:39;;;;;;;6.15;1.83;;;17.50;96.30;;;17.13;87.14;99783.47;5009281;28;20093;-87
2021/07/05 03:30:10;;;;;;;4.72;1.90;;;17.50;96.50;;;17.12;87.47;99785.38;4999716;28;20135;-88
2021/07/05 03:32:39;;;;;;;4.70;2.10;;;17.50;96.60;;;17.14;87.29;99788.72;4989566;28;20121;-88
2021/07/05 03:35:09;;;;;;;3.20;1.67;;;17.50;96.60;;;17.13;87.66;99789.78;4989653;28;20042;-88
2021/07/05 03:37:37;;;;;;;5.15;2.08;;;17.60;96.60;;;17.16;87.78;99781.06;5006862;28;20041;-80
2021/07/05 03:40:09;;;;;;;3.92;2.30;;;17.60;96.70;;;17.18;87.94;99791.81;5008548;28;20061;-82
2021/07/05 03:42:36;;;;;;;;;;;17.60;96.70;;;17.19;88.16;99790.72;5009716;28;20038;-82
2021/07/05 03:45:05;;;;;;;4.07;2.13;;;17.70;96.80;;;17.20;88.29;99793.22;5009385;28;20793;-81
2021/07/05 03:47:33;;;;;;;4.90;2.10;;;17.70;96.80;;;17.22;88.86;99790.25;5008876;28;20073;-84
2021/07/05 03:50:01;;;;;;;4.93;2.28;;;17.80;96.90;;;17.24;88.69;99782.56;5008945;28;20045;-82
2021/07/05 03:52:28;;;;;;;4.97;2.05;;;17.80;97.10;;;17.25;88.80;99788.91;5009315;28;20068;-83
2021/07/05 03:54:56;;;;;;;6.05;2.00;;;17.90;97.20;;;17.28;89.00;99793.91;5009027;28;20049;-83
2021/07/05 03:57:23;;;;;;;5.32;2.35;;;17.90;97.30;;;17.28;89.55;99782.91;5009043;28;20129;-81
2021/07/05 03:59:50;;;;;;;7.93;2.58;;;17.90;97.30;;;17.30;89.42;99784.31;5008905;28;20050;-83
2021/07/05 04:02:18;;;;;;;6.70;2.08;;;17.90;97.20;;;17.32;89.73;99787.66;4992324;28;20054;-82
2021/07/05 04:04:46;;;;;;;3.53;2.00;;;18.00;97.20;;;17.34;89.65;99781.91;4989298;28;20129;-82
2021/07/05 04:07:15;;;;;;;4.60;2.40;;;18.00;97.10;;;17.36;90.03;99788.00;4988878;28;20050;-82
2021/07/05 04:09:43;;;;;;;4.85;2.30;;;18.10;97.30;;;17.37;90.32;99786.94;4989422;28;20501;-82
2021/07/05 04:12:12;;;;;;;5.88;2.30;;;18.10;97.40;;;17.39;90.25;99780.09;5003064;28;20045;-82
2021/07/05 04:14:41;;;;;;;5.28;2.15;;;18.10;97.50;;;17.41;90.17;99779.84;5008868;28;20069;-82
2021/07/05 04:17:09;;;;;;;5.22;2.03;;;18.10;97.50;;;17.43;90.27;99780.44;5008487;28;20051;-82
2021/07/05 04:19:36;;;;;;;6.25;2.45;;;18.20;97.50;;;17.44;90.58;99784.88;4991482;28;20046;-82
2021/07/05 04:22:04;;;;;;;5.43;2.53;;;18.20;97.60;;;17.45;90.51;99778.28;4988991;28;20136;-86
2021/07/05 04:24:33;;;;;;;4.28;2.00;;;18.20;97.60;;;17.46;90.61;99779.09;4996332;28;20042;-86
2021/07/05 04:27:00;;;;;;;6.38;2.60;;;18.20;97.60;;;17.45;90.86;99778.28;5008210;28;20104;-84
2021/07/05 04:29:27;;;;;;;4.88;1.92;;;18.20;97.50;;;17.48;90.82;99776.97;5007443;28;20042;-82
2021/07/05 04:31:54;;;;;;;5.88;2.28;;;18.20;97.60;;;17.48;90.79;99786.03;4987591;28;20153;-82
2021/07/05 04:34:22;;;;;;;10.07;2.88;;;18.30;97.80;;;17.49;91.24;99784.94;4988734;28;20062;-84
2021/07/05 04:36:49;;;;;;;7.50;2.92;;;18.20;97.70;;;17.49;91.09;99804.19;5000686;28;20123;-83
2021/07/05 04:39:16;;;;;;;10.95;3.13;;;18.30;97.90;;;17.49;91.78;99814.38;5008131;28;20046;-83
2021/07/05 04:41:45;;;;;;;10.50;3.47;;;18.30;98.10;;;17.43;92.56;99807.13;5008310;28;20054;-83
2021/07/05 04:44:13;;;;;;;6.05;2.22;;;18.20;98.00;;;17.39;92.97;99806.78;5008511;28;20621;-82
2021/07/05 04:46:46;;;;;;;4.85;2.20;;;18.30;98.20;;;17.39;92.86;99806.78;5007840;28;20046;-81
2021/07/05 04:49:14;;;;;;;6.28;2.33;;;18.20;98.00;;;17.38;93.02;99807.84;5008585;28;20045;-82
2021/07/05 04:51:45;;;;;;;8.05;2.22;;;18.20;98.10;;;17.38;93.04;99816.09;5008389;28;20125;-80
2021/07/05 04:54:12;;;;;;;7.32;2.30;;;18.20;98.20;;;17.37;92.89;99809.78;5008454;28;20038;-83
2021/07/05 04:56:40;;;;;;;9.20;2.28;;;18.20;98.30;;;17.39;92.71;99826.03;5008031;28;20050;-83
2021/07/05 04:59:11;;;;;;;5.88;1.92;;;18.20;98.20;;;17.37;92.53;99831.78;5008497;28;20050;-82
2021/07/05 05:01:39;;;;;;;;;;;18.10;98.20;;;17.37;92.54;99841.94;5008859;28;20069;-82
2021/07/05 05:04:06;;;;;;;3.67;1.80;;;18.10;98.20;;;17.36;92.64;99835.63;5008429;28;19995;-83
2021/07/05 05:06:33;;;;;;;5.82;1.92;;;18.10;98.30;;;17.35;92.78;99841.38;5007860;28;20053;-82
2021/07/05 05:09:00;;;;;;;8.10;2.10;;;18.10;98.40;;;17.32;92.69;99850.09;5008124;28;20678;-82
2021/07/05 05:11:28;;;;;;;14.30;2.80;;;18.10;98.30;;;17.22;92.13;99867.22;5008252;28;20077;-80
2021/07/05 05:13:56;;;;;;;7.18;2.20;;;18.00;97.30;;;17.18;91.87;99855.06;5009362;28;20049;-80
2021/07/05 05:16:24;;;;;;;5.75;1.90;;;18.00;97.20;;;17.23;91.44;99813.06;5011821;28;20084;-80
2021/07/05 05:18:51;;;;;;;11.57;2.20;;;17.90;96.80;;;17.26;91.15;99812.59;5011835;28;20042;-80
2021/07/05 05:21:19;;;;;;;6.60;1.90;;;17.90;96.90;;;17.22;89.82;99847.16;5011907;28;20151;-79
2021/07/05 05:23:46;;;;;;;9.82;1.88;;;17.80;95.90;;;17.13;89.22;99850.28;5011922;28;20037;-79
2021/07/05 05:26:13;;;;;;;7.72;1.73;;;17.70;96.10;;;17.14;89.53;99862.13;5010025;28;20484;-79
2021/07/05 05:28:40;;;;;;;6.00;1.33;;;17.70;95.80;;;17.13;88.78;99855.78;5011853;28;20049;-79
2021/07/05 05:31:08;;;;;;;7.10;1.50;;;17.70;95.70;;;17.15;88.34;99855.53;4992826;28;20049;-79
2021/07/05 05:33:37;;;;;;;4.90;1.30;;;17.60;95.60;;;17.15;88.28;99848.16;4990592;28;20427;-79
2021/07/05 05:36:04;;;;;;;8.68;1.63;;;17.60;95.60;;;17.12;87.89;99851.38;4992212;28;20125;-79
2021/07/05 05:38:32;;;;;;;3.45;1.10;;;17.50;95.60;;;17.07;87.50;99848.50;4989299;28;20046;-80
2021/07/05 05:40:59;;;;;;;7.65;1.17;;;17.50;95.60;;;17.04;87.66;99884.75;4991543;28;20401;-79
2021/07/05 05:43:26;;;;;;;6.22;1.40;;;17.50;95.60;;;17.04;87.85;99884.75;4988852;28;20515;-79
2021/07/05 05:46:00;;;;;;;4.45;1.20;;;17.40;95.70;;;17.03;87.38;99880.31;4995345;28;20125;-79
2021/07/05 05:48:27;;;;;;;5.95;1.20;;;17.40;95.60;;;17.02;87.55;99883.31;4983395;28;20092;-79
2021/07/05 05:50:56;;;;;;;5.53;1.20;;;17.40;95.90;;;17.03;87.85;99866.56;4991728;28;20046;-80
2021/07/05 05:53:24;;;;;;;3.75;1.40;;;17.40;96.00;;;16.99;87.72;99868.16;4978735;28;20109;-80
2021/07/05 05:55:51;;;;;;;6.18;1.73;;;17.40;95.90;;;17.00;87.80;99865.16;4991503;28;20145;-79
2021/07/05 05:58:19;;;;;;;3.42;1.45;;;17.40;95.90;;;17.00;87.87;99881.66;4991426;28;20053;-79
2021/07/05 06:00:46;;;;;;;4.60;1.65;;;17.40;96.00;;;17.00;87.72;99878.03;4991468;28;20392;-79
2021/07/05 06:03:13;;;;;;;4.90;1.70;;;17.40;95.90;;;16.99;87.78;99868.97;4991610;28;20546;-80
2021/07/05 06:05:40;;;;;;;6.10;1.30;;;17.40;96.00;;;16.99;87.90;99857.16;4991076;28;20101;-79
2021/07/05 06:08:09;;;;;;;4.35;1.67;;;17.40;96.20;;;17.02;88.04;99845.69;4991178;28;20104;-80
2021/07/05 06:10:36;;;;;;;3.70;1.58;;;17.40;96.30;;;17.04;87.82;99842.66;4991264;28;20576;-79
2021/07/05 06:13:04;;;;;;;7.57;1.55;;;17.40;96.20;;;17.02;87.69;99845.69;4991494;28;20077;-80
2021/07/05 06:15:31;;;;;;;6.28;1.80;;;17.40;96.10;;;16.99;87.81;99862.66;4988299;28;20161;-79
2021/07/05 06:17:58;;;;;;;7.18;2.13;;;17.40;96.20;;;16.99;87.78;99868.16;4977555;28;20046;-79
2021/07/05 06:20:26;;;;;;;4.40;1.98;;;17.30;96.40;;;17.00;87.93;99875.28;4972523;28;20121;-78
2021/07/05 06:22:55;;;;;;;4.53;2.25;;;17.40;96.40;;;16.97;87.85;99873.06;4990362;28;20154;-78
2021/07/05 06:25:24;;;;;;;8.60;2.55;;;17.40;96.40;;;16.96;88.14;99865.88;4989257;28;20125;-78
2021/07/05 06:27:52;;;;;;;7.25;2.83;;;17.40;96.50;;;16.98;88.19;99863.72;4990691;28;20101;-78
2021/07/05 06:30:19;;;;;;;10.18;3.00;;;17.40;96.40;;;16.97;87.82;99871.13;4991100;28;20096;-78
2021/07/05 06:32:47;;;;;;;6.05;3.03;;;17.40;96.30;;;16.95;88.18;99878.78;4990788;28;20388;-79
2021/07/05 06:35:16;;;;;;;8.88;3.53;;;17.40;96.20;;;16.97;88.08;99876.63;4989352;28;20065;-78
2021/07/05 06:37:43;;;;;;;7.32;4.03;;;17.40;96.10;;;16.99;87.98;99879.13;4990883;28;20057;-78
2021/07/05 06:40:11;;;;;;;8.27;4.13;;;17.40;96.20;;;16.98;88.09;99867.31;4990682;28;20050;-78
2021/07/05 06:42:40;;;;;;;7.60;3.75;;;17.40;96.20;;;16.99;88.07;99862.66;4990916;28;20095;-78
2021/07/05 06:45:08;;;;;;;9.32;3.97;;;17.40;96.30;;;16.99;88.29;99863.47;4990375;28;20050;-78
2021/07/05 06:47:35;;;;;;;13.15;4.10;;;17.50;96.40;;;16.99;88.22;99848.91;4990470;28;20153;-79
2021/07/05 06:50:04;;;;;;;6.75;3.30;;;17.50;96.30;;;17.02;88.39;99842.94;4990765;28;20061;-79
2021/07/05 06:52:33;;;;;;;6.80;3.47;;;17.50;96.50;;;17.02;88.70;99851.19;4990618;28;20043;-79
2021/07/05 06:55:00;;;;;;;6.72;3.28;;;17.50;96.40;;;17.03;88.46;99847.34;4990515;28;20479;-79
2021/07/05 06:57:30;;;;;;;6.97;3.47;;;17.60;96.40;;;17.03;88.53;99841.84;4990334;28;20104;-80
2021/07/05 07:00:00;;;;;;;5.63;2.88;;;17.60;96.20;;;17.03;88.54;99841.84;4990811;28;20054;-78
2021/07/05 07:02:28;;;;;;;5.32;2.97;;;17.60;96.10;;;17.06;88.66;99848.75;4990196;28;20077;-79
2021/07/05 07:04:55;;;;;;;7.10;2.75;;;17.70;96.20;;;17.06;88.56;99852.34;4990405;28;20046;-79
2021/07/05 07:07:23;;;;;;;6.00;3.05;;;17.60;96.00;;;17.07;88.90;99853.19;4990019;28;20046;-79
2021/07/05 07:09:50;;;;;;;5.03;2.47;;;17.70;96.20;;;17.08;88.93;99857.63;4990379;28;20136;-78
2021/07/05 07:12:17;;;;;;;7.35;3.35;;;17.70;96.20;;;17.08;89.12;99855.69;4990499;28;20499;-79
2021/07/05 07:14:45;;;;;;;8.23;2.75;;;17.70;96.40;;;17.11;89.25;99855.19;4990061;28;20053;-78
2021/07/05 07:17:20;;;;;;;5.32;2.70;;;17.80;96.50;;;17.11;88.96;99852.44;4989574;28;20042;-78
2021/07/05 07:19:48;;;;;;;4.10;2.60;;;17.80;95.90;;;17.11;88.91;99860.69;4990169;28;20086;-78
2021/07/05 07:22:15;;;;;;;4.95;2.63;;;17.80;96.00;;;17.12;89.08;99865.13;4989878;28;20124;-78
2021/07/05 07:24:42;;;;;;;5.78;2.50;;;17.80;96.00;;;17.12;89.48;99856.88;4989921;28;20038;-79
2021/07/05 07:27:09;;;;;;;4.57;2.53;;;17.90;96.20;;;17.13;89.49;99858.53;4989654;28;20051;-78
2021/07/05 07:29:37;;;;;;;5.10;2.55;;;17.90;96.10;;;17.16;89.64;99862.72;4973915;28;20055;-78
2021/07/05 07:32:04;;;;;;;5.30;2.47;;;17.90;96.10;;;17.16;89.88;99858.03;4985200;28;20117;-78
2021/07/05 07:34:33;;;;;;;8.23;3.03;;;18.00;95.90;;;17.18;89.98;99861.38;4970336;28;20102;-78
2021/07/05 07:37:03;;;;;;;6.88;2.83;;;18.00;95.80;;;17.19;90.18;99868.56;4968137;28;20554;-78
2021/07/05 07:39:32;;;;;;;5.72;2.88;;;18.10;95.80;;;17.21;90.40;99871.09;4970399;28;20517;-78
2021/07/05 07:41:59;;;;;;;12.40;2.80;;;18.20;95.60;;;17.23;90.28;99873.56;4970171;28;20058;-78
2021/07/05 07:44:27;;;;;;;6.15;2.95;;;18.20;95.30;;;17.25;90.42;99886.00;4970376;28;20043;-78
2021/07/05 07:46:54;;;;;;;5.70;2.40;;;18.20;95.30;;;17.26;90.57;99878.59;4989244;28;20534;-78
2021/07/05 07:49:21;;;;;;;7.13;2.47;;;18.30;95.40;;;17.27;91.50;99881.09;4989259;28;20074;-77
2021/07/05 07:51:50;;;;;;;7.07;2.70;;;18.30;95.60;;;17.29;91.26;99880.84;4988829;28;20097;-78
2021/07/05 07:54:17;;;;;;;9.13;2.78;;;18.40;95.40;;;17.29;91.38;99883.59;4999857;28;20450;-77
2021/07/05 07:56:44;;;;;;;5.85;2.67;;;18.50;95.20;;;17.31;91.50;99885.03;5008795;28;20521;-78
2021/07/05 07:59:12;;;;;;;7.10;2.75;;;18.50;94.90;;;17.35;92.51;99872.44;5002935;28;20458;-78
2021/07/05 08:01:39;;;;;;;5.40;2.60;;;18.70;95.00;;;17.38;92.26;99871.97;4989366;28;20042;-79
2021/07/05 08:04:06;;;;;;;7.03;2.58;;;18.80;94.50;;;17.41;92.29;99878.06;4989083;28;20074;-78
2021/07/05 08:06:33;;;;;;;7.95;2.92;;;18.80;94.20;;;17.44;92.29;99889.41;4989059;28;20506;-78
2021/07/05 08:09:04;;;;;;;8.75;4.22;;;18.90;94.00;;;17.50;92.49;99879.34;4989293;28;20042;-78
2021/07/05 08:11:31;;;;;;;9.27;3.60;;;19.10;94.00;;;17.57;94.70;99880.84;4989426;28;20133;-78
2021/07/05 08:13:59;;;;;;;7.20;3.50;;;19.40;94.10;;;17.66;96.31;99885.94;4988017;28;20109;-78
2021/07/05 08:16:27;;;;;;;9.50;3.70;;;19.70;93.90;;;17.72;95.43;99898.72;4988716;28;20053;-78
2021/07/05 08:18:54;;;;;;;9.60;3.50;;;19.90;92.40;;;17.80;95.47;99890.06;4989322;28;20517;-78
2021/07/05 08:21:22;;;;;;;10.57;4.07;;;20.10;92.10;;;17.83;94.91;99891.50;4988892;28;20046;-78
2021/07/05 08:23:50;;;;;;;8.82;3.72;;;20.10;91.10;;;17.86;94.67;99891.88;4989167;28;20039;-77
2021/07/05 08:26:19;;;;;;;8.95;3.63;;;20.30;90.90;;;17.96;94.92;99892.03;4988585;28;20104;-77
2021/07/05 08:28:47;;;;;;;9.90;3.97;;;20.40;90.00;;;18.01;93.45;99895.94;4988818;28;20542;-77
2021/07/05 08:31:14;;;;;;;10.63;3.88;;;20.50;89.30;;;18.05;93.64;99897.13;4988877;28;20113;-79
2021/07/05 08:33:41;;;;;;;10.93;4.13;;;20.50;89.30;;;18.10;93.41;99899.97;4988894;28;20137;-78
2021/07/05 08:36:09;;;;;;;7.65;3.60;;;20.50;89.30;;;18.12;92.43;99903.31;4988737;28;20046;-78
2021/07/05 08:38:36;;;;;;;9.32;3.50;;;20.50;88.80;;;18.14;91.41;99898.38;4988860;28;20553;-78
2021/07/05 08:41:04;;;;;;;9.80;3.97;;;20.50;88.20;;;18.21;92.49;99898.22;4987653;28;20046;-80
2021/07/05 08:43:33;;;;;;;9.00;3.70;;;20.60;88.50;;;18.27;92.49;99894.47;4988767;28;20046;-80
2021/07/05 08:46:03;;;;;;;8.77;3.50;;;20.60;88.40;;;18.29;92.06;99887.63;4988673;28;20093;-81
2021/07/05 08:48:34;;;;;;;10.00;3.60;;;20.60;88.30;;;18.32;91.79;99892.63;4989505;28;20042;-81
2021/07/05 08:51:03;;;;;;;11.98;3.78;;;20.60;88.10;;;18.34;91.72;99906.97;4992950;28;20050;-81
2021/07/05 08:53:32;;;;;;;11.40;3.88;;;20.70;87.70;;;18.39;91.29;99891.63;4992636;28;20100;-81
2021/07/05 08:55:59;;;;;;;8.40;3.50;;;20.80;87.70;;;18.44;90.97;99883.44;4991105;28;20048;-81
2021/07/05 08:58:26;;;;;;;9.77;3.40;;;20.90;87.40;;;18.44;90.47;99889.78;4992742;28;20054;-81
2021/07/05 09:00:55;;;;;;;10.75;3.90;;;20.90;87.10;;;18.49;91.26;99895.38;4990803;28;20058;-81
2021/07/05 09:03:25;;;;;;;11.63;3.75;;;21.00;87.30;;;18.54;91.17;99900.97;4992447;28;20133;-79
2021/07/05 09:06:09;;;;;;;9.52;3.80;;;21.00;87.20;;;18.57;90.78;99894.09;4992113;28;20050;-81
2021/07/05 09:08:39;;;;;;;15.13;4.60;;;21.00;87.10;;;18.58;90.54;99887.50;4992627;28;20070;-81
2021/07/05 09:11:08;;;;;;;5.40;3.73;;;20.90;86.80;;;18.59;90.05;99891.94;4992721;28;20070;-81
2021/07/05 09:13:48;;;;;;;8.27;3.97;;;20.80;86.30;;;18.62;91.12;99896.94;4992513;28;20545;-81
2021/07/05 09:16:31;;;;;;;10.95;4.15;;;20.80;87.80;;;18.62;91.61;99885.94;4991555;28;20620;-81
2021/07/05 09:19:01;;;;;;;9.68;3.30;;;20.70;88.10;;;18.61;90.26;99895.28;4992478;28;20042;-80
2021/07/05 09:21:31;;;;;;;8.20;3.72;;;20.70;87.60;;;18.62;90.37;99912.63;4972920;28;20122;-80
2021/07/05 09:24:02;;;;;;;8.15;3.67;;;20.60;87.80;;;18.61;89.74;99906.28;5000970;28;20058;-81
2021/07/05 09:26:35;;;;;;;8.30;3.78;;;20.60;87.50;;;18.63;89.77;99911.56;4998345;28;20054;-84
2021/07/05 09:29:06;;;;;;;9.80;3.97;;;20.60;86.20;;;18.63;89.18;99906.03;4991436;28;20042;-80
2021/07/05 09:31:42;;;;;;;12.57;4.35;;;20.50;87.70;;;18.63;89.14;99898.59;4992132;28;20495;-82
2021/07/05 09:34:19;;;;;;;7.32;3.97;;;20.30;88.10;;;18.61;88.96;99897.19;4991942;28;20052;-82
2021/07/05 09:36:48;;;;;;;7.88;3.70;;;20.20;88.60;;;18.57;88.64;99894.09;4990352;28;20105;-81
2021/07/05 09:39:18;;;;;;;8.65;4.00;;;20.10;88.70;;;18.56;89.09;99904.31;4991910;28;20074;-81
2021/07/05 09:41:47;;;;;;;10.80;3.72;;;20.00;89.60;;;18.55;89.35;99896.28;4989673;28;20101;-80
2021/07/05 09:44:17;;;;;;;15.40;4.00;;;20.00;90.00;;;18.56;89.79;99903.44;4989364;28;20117;-81
2021/07/05 09:46:49;;;;;;;8.00;3.75;;;20.00;90.60;;;18.56;90.16;99911.72;4991167;28;20042;-83
2021/07/05 09:49:21;;;;;;;6.13;3.58;;;20.10;90.80;;;18.55;89.76;99907.31;4989625;28;20510;-81
2021/07/05 09:52:06;;;;;;;10.35;4.50;;;20.10;90.40;;;18.54;89.05;99906.47;4990991;28;20080;-81
2021/07/05 09:54:34;;;;;;;10.18;4.25;;;20.00;89.90;;;18.54;89.39;99902.88;4989761;28;20069;-82
2021/07/05 09:57:04;;;;;;;11.57;4.10;;;20.00;90.30;;;18.54;89.78;99905.63;4990502;28;20050;-81
2021/07/05 09:59:31;;;;;;;7.68;4.05;;;20.00;90.80;;;18.52;90.75;99907.81;4991240;28;20119;-81
2021/07/05 10:02:01;;;;;;;8.82;3.70;;;20.00;91.20;;;18.52;91.28;99902.28;4991288;28;20169;-80
2021/07/05 10:04:32;;;;;;;9.10;4.63;;;20.10;91.30;;;18.55;91.52;99893.53;4991209;28;20038;-80
2021/07/05 10:07:04;;;;;;;7.70;3.88;;;20.30;91.00;;;18.59;91.65;99902.97;4990392;28;20050;-80
2021/07/05 10:09:37;;;;;;;11.43;4.93;;;20.40;90.40;;;18.62;91.91;99899.72;4989175;28;20104;-80
2021/07/05 10:12:24;;;;;;;9.07;4.10;;;20.50;90.30;;;18.61;90.92;99906.28;4972153;28;20047;-80
2021/07/05 10:14:58;;;;;;;8.18;4.10;;;20.60;88.80;;;18.61;89.70;99900.78;4971712;28;20042;-80
2021/07/05 10:17:30;;;;;;;12.27;4.05;;;20.60;88.10;;;18.61;89.37;99895.28;4977116;28;20050;-79
2021/07/05 10:19:57;;;;;;;9.75;3.90;;;20.50;88.20;;;18.63;89.62;99893.09;4991661;28;20125;-79
2021/07/05 10:22:25;;;;;;;8.60;3.42;;;20.50;88.90;;;18.62;89.79;99888.69;4991052;28;20141;-82
2021/07/05 10:24:55;;;;;;;11.52;4.65;;;20.40;89.10;;;18.62;88.41;99887.81;4989869;28;20038;-80